createdAt,value
2023-05-03T00:01:09.304Z,2.58
2023-05-03T00:06:15.066Z,2.80
2023-05-03T00:11:18.151Z,2.17
2023-05-03T00:16:21.188Z,2.05
2023-05-03T00:21:25.535Z,2.22
2023-05-03T00:26:29.380Z,2.50
2023-05-03T00:31:32.306Z,2.30
2023-05-03T00:36:37.256Z,2.30
2023-05-03T00:41:41.654Z,2.35
2023-05-03T00:46:44.697Z,2.00
2023-05-03T00:51:49.336Z,2.20
2023-05-03T00:56:52.660Z,2.20
2023-05-03T01:01:55.861Z,2.10
2023-05-03T01:07:15.023Z,2.00
2023-05-03T01:12:31.548Z,2.17
2023-05-03T01:17:37.956Z,2.38
2023-05-03T01:22:47.925Z,1.80
2023-05-03T01:27:52.225Z,2.10
2023-05-03T01:33:02.630Z,1.80
2023-05-03T01:38:06.635Z,1.90
2023-05-03T01:43:13.063Z,1.90
2023-05-03T01:48:17.247Z,2.28
2023-05-03T01:53:20.199Z,1.88
2023-05-03T01:58:24.467Z,1.70
2023-05-03T02:03:27.330Z,2.15
2023-05-03T02:08:30.239Z,1.75
2023-05-03T02:13:34.551Z,1.70
2023-05-03T02:18:37.466Z,2.00
2023-05-03T02:23:40.535Z,1.80
2023-05-03T02:28:44.775Z,1.65
2023-05-03T02:33:47.683Z,1.50
2023-05-03T02:38:50.682Z,1.70
2023-05-03T02:43:55.084Z,1.65
2023-05-03T02:48:58.073Z,1.73
2023-05-03T02:54:01.154Z,1.70
2023-05-03T02:59:05.591Z,1.58
2023-05-03T03:04:08.653Z,2.08
2023-05-03T03:09:12.567Z,1.80
2023-05-03T03:14:16.829Z,1.83
2023-05-03T03:19:19.857Z,1.77
2023-05-03T03:24:22.797Z,1.65
2023-05-03T03:29:28.102Z,1.88
2023-05-03T03:34:31.422Z,1.60
2023-05-03T03:39:34.393Z,1.77
2023-05-03T03:44:38.688Z,1.70
2023-05-03T03:49:41.589Z,1.90
2023-05-03T03:54:44.941Z,1.48
2023-05-03T03:59:49.230Z,1.60
2023-05-03T04:04:52.130Z,1.92
2023-05-03T04:09:56.594Z,1.60
2023-05-03T04:15:00.865Z,1.50
2023-05-03T04:20:10.783Z,1.90
2023-05-03T04:25:15.117Z,1.80
2023-05-03T04:30:19.906Z,2.03
2023-05-03T04:35:23.015Z,1.80
2023-05-03T04:40:25.960Z,1.52
2023-05-03T04:45:30.384Z,1.52
2023-05-03T04:50:33.488Z,1.60
2023-05-03T04:55:36.522Z,1.52
2023-05-03T05:00:43.170Z,1.40
2023-05-03T05:05:46.292Z,1.40
2023-05-03T05:10:49.558Z,1.67
2023-05-03T05:15:53.833Z,1.50
2023-05-03T05:20:56.699Z,1.50
2023-05-03T05:26:00.631Z,1.42
2023-05-03T05:31:05.044Z,1.40
2023-05-03T05:36:08.352Z,1.60
2023-05-03T05:41:11.317Z,1.60
2023-05-03T05:46:15.645Z,1.40
2023-05-03T05:51:19.163Z,1.50
2023-05-03T05:56:22.145Z,1.73
2023-05-03T06:01:27.719Z,1.60
2023-05-03T06:06:31.464Z,1.30
2023-05-03T06:11:34.826Z,1.70
2023-05-03T06:16:39.323Z,1.80
2023-05-03T06:21:42.229Z,2.00
2023-05-03T06:26:45.144Z,1.83
2023-05-03T06:31:49.407Z,1.83
2023-05-03T06:36:52.681Z,1.75
2023-05-03T06:41:55.681Z,1.77
2023-05-03T06:46:59.990Z,5.72
2023-05-03T06:52:03.060Z,3.95
2023-05-03T06:57:06.054Z,5.25
2023-05-03T07:02:10.391Z,3.35
2023-05-03T07:07:13.421Z,4.43
2023-05-03T07:12:16.485Z,3.58
2023-05-03T07:17:21.132Z,2.72
2023-05-03T07:22:25.337Z,2.67
2023-05-03T07:27:28.285Z,2.42
2023-05-03T07:32:33.804Z,2.38
2023-05-03T07:37:38.514Z,2.40
2023-05-03T07:42:41.751Z,4.55
2023-05-03T07:47:46.135Z,2.90
2023-05-03T07:52:51.722Z,3.47
2023-05-03T07:57:58.666Z,2.55
2023-05-03T08:03:04.594Z,2.72
2023-05-03T08:08:08.292Z,3.85
2023-05-03T08:13:11.656Z,2.85
2023-05-03T08:18:15.971Z,2.80
2023-05-03T08:23:19.243Z,2.70
2023-05-03T08:28:22.153Z,3.08
2023-05-03T08:33:26.512Z,3.80
2023-05-03T08:38:29.454Z,4.32
2023-05-03T08:43:36.322Z,3.78
2023-05-03T08:48:40.740Z,3.50
2023-05-03T08:53:43.832Z,3.33
2023-05-03T08:58:46.729Z,2.40
2023-05-03T09:03:52.890Z,2.35
2023-05-03T09:08:56.459Z,2.40
2023-05-03T09:14:10.065Z,2.25
2023-05-03T09:19:15.771Z,1.85
2023-05-03T09:24:20.108Z,2.75
2023-05-03T09:29:30.571Z,3.75
2023-05-03T09:34:35.609Z,3.22
2023-05-03T09:39:38.554Z,2.90
2023-05-03T09:44:43.365Z,2.38
2023-05-03T09:49:47.946Z,2.97
2023-05-03T09:54:53.161Z,2.72
2023-05-03T09:59:56.141Z,2.83
2023-05-03T10:05:00.624Z,2.53
2023-05-03T10:10:05.001Z,2.33
2023-05-03T10:15:11.468Z,2.10
2023-05-03T10:20:22.961Z,2.05
2023-05-03T10:25:25.880Z,2.05
2023-05-03T10:30:31.217Z,2.30
2023-05-03T10:35:35.489Z,2.30
2023-05-03T10:40:43.680Z,3.08
2023-05-03T10:45:48.814Z,2.30
2023-05-03T10:50:53.549Z,2.65
2023-05-03T10:56:03.625Z,2.40
2023-05-03T11:01:07.588Z,2.60
2023-05-03T11:06:27.437Z,2.42
2023-05-03T11:11:31.162Z,2.38
2023-05-03T11:16:34.219Z,2.53
2023-05-03T11:21:38.725Z,3.08
2023-05-03T11:26:41.720Z,3.00
2023-05-03T11:31:44.869Z,2.65
2023-05-03T11:36:49.380Z,3.30
2023-05-03T11:42:05.329Z,3.05
2023-05-03T11:47:09.172Z,3.03
2023-05-03T11:52:13.882Z,2.70
2023-05-03T11:57:17.137Z,2.97
2023-05-03T12:02:20.104Z,2.85
2023-05-03T12:07:26.362Z,2.85
2023-05-03T12:12:31.747Z,2.90
2023-05-03T12:17:38.886Z,2.80
2023-05-03T12:22:44.954Z,2.50
2023-05-03T12:27:57.882Z,2.72
2023-05-03T12:33:10.843Z,2.45
2023-05-03T12:38:17.540Z,2.60
2023-05-03T12:43:21.722Z,2.80
2023-05-03T12:48:25.259Z,2.70
2023-05-03T12:53:29.851Z,2.50
2023-05-03T12:58:56.797Z,2.33
2023-05-03T13:09:05.921Z,2.30
2023-05-03T13:14:09.088Z,2.53
2023-05-03T13:19:12.007Z,2.30
2023-05-03T13:24:16.316Z,2.40
2023-05-03T13:29:19.233Z,2.50
2023-05-03T13:34:22.184Z,2.38
2023-05-03T13:39:26.631Z,2.42
2023-05-03T13:44:29.538Z,2.65
2023-05-03T13:49:32.447Z,2.60
2023-05-03T13:54:37.603Z,2.47
2023-05-03T13:59:41.482Z,2.72
2023-05-03T14:04:44.424Z,2.58
2023-05-03T14:09:48.720Z,2.35
2023-05-03T14:14:51.746Z,2.67
2023-05-03T14:19:54.665Z,2.15
2023-05-03T14:24:58.912Z,2.65
2023-05-03T14:30:02.156Z,2.40
2023-05-03T14:35:05.659Z,2.50
2023-05-03T14:40:11.217Z,2.55
2023-05-03T14:45:14.936Z,2.38
2023-05-03T14:50:18.221Z,2.47
2023-05-03T14:55:22.729Z,2.45
2023-05-03T15:00:25.828Z,2.17
2023-05-03T15:05:28.796Z,2.30
2023-05-03T15:10:34.628Z,2.28
2023-05-03T15:15:38.079Z,2.10
2023-05-03T15:20:41.063Z,2.13
2023-05-03T15:25:45.398Z,2.20
2023-05-03T15:30:48.351Z,2.33
2023-05-03T15:35:51.382Z,2.20
2023-05-03T15:40:55.627Z,2.10
2023-05-03T15:45:58.803Z,2.03
2023-05-03T15:51:01.769Z,2.03
2023-05-03T15:56:07.340Z,2.28
2023-05-03T16:01:10.539Z,2.40
2023-05-03T16:06:13.563Z,2.10
2023-05-03T16:11:17.844Z,2.13
2023-05-03T16:16:21.050Z,2.20
2023-05-03T16:21:23.981Z,2.00
2023-05-03T16:26:28.255Z,1.92
2023-05-03T16:31:31.273Z,2.28
2023-05-03T16:36:34.341Z,2.03
2023-05-03T16:41:38.695Z,2.00
2023-05-03T16:46:43.062Z,1.95
2023-05-03T16:51:45.997Z,2.17
2023-05-03T16:56:50.314Z,2.10
2023-05-03T17:01:53.251Z,2.22
2023-05-03T17:06:56.845Z,2.10
2023-05-03T17:12:03.391Z,2.05
2023-05-03T17:17:07.430Z,1.85
2023-05-03T17:22:10.485Z,2.47
2023-05-03T17:27:14.738Z,2.10
2023-05-03T17:32:17.663Z,2.20
2023-05-03T17:37:23.247Z,2.30
2023-05-03T17:42:27.693Z,1.88
2023-05-03T17:47:30.900Z,1.90
2023-05-03T17:52:33.829Z,2.00
2023-05-03T17:57:39.448Z,1.95
2023-05-03T18:02:42.674Z,1.88
2023-05-03T18:07:46.356Z,1.98
2023-05-03T18:12:50.649Z,2.10
2023-05-03T18:17:54.344Z,1.92
2023-05-03T18:22:57.494Z,2.15
2023-05-03T18:28:02.020Z,2.10
2023-05-03T18:33:05.220Z,2.20
2023-05-03T18:38:08.239Z,2.10
2023-05-03T18:43:12.688Z,2.03
2023-05-03T18:48:15.637Z,2.10
2023-05-03T18:53:18.618Z,2.05
2023-05-03T18:58:22.939Z,2.13
2023-05-03T19:03:25.848Z,1.90
2023-05-03T19:08:29.212Z,1.90
2023-05-03T19:13:33.504Z,1.90
2023-05-03T19:18:37.164Z,1.98
2023-05-03T19:23:41.358Z,2.03
2023-05-03T19:28:45.849Z,1.88
2023-05-03T19:33:48.791Z,1.95
2023-05-03T19:38:51.763Z,2.00
2023-05-03T19:43:56.598Z,1.95
2023-05-03T19:48:59.529Z,2.17
2023-05-03T19:54:03.788Z,1.85
2023-05-03T19:59:08.095Z,1.80
2023-05-03T20:04:11.138Z,2.20
2023-05-03T20:09:14.089Z,2.42
2023-05-03T20:14:18.607Z,2.10
2023-05-03T20:19:23.361Z,2.10
2023-05-03T20:24:26.283Z,1.92
2023-05-03T20:29:30.743Z,1.98
2023-05-03T20:34:33.644Z,2.05
2023-05-03T20:39:36.625Z,2.47
2023-05-03T20:44:40.898Z,2.50
2023-05-03T20:49:43.861Z,2.50
2023-05-03T20:54:46.869Z,2.30
2023-05-03T20:59:51.191Z,2.38
2023-05-03T21:04:54.085Z,2.33
2023-05-03T21:09:56.955Z,2.30
2023-05-03T21:15:01.204Z,2.33
2023-05-03T21:20:05.926Z,3.40
2023-05-03T21:25:10.051Z,2.20
2023-05-03T21:30:15.513Z,2.70
2023-05-03T21:35:18.969Z,2.60
2023-05-03T21:40:22.482Z,2.50
2023-05-03T21:45:26.821Z,2.65
2023-05-03T21:50:29.728Z,2.75
2023-05-03T21:55:33.091Z,2.42
2023-05-03T22:00:37.371Z,2.40
2023-05-03T22:05:40.844Z,2.67
2023-05-03T22:10:43.768Z,2.70
2023-05-03T22:15:48.090Z,3.00
2023-05-03T22:20:51.619Z,2.92
2023-05-03T22:25:54.512Z,2.85
2023-05-03T22:30:58.765Z,2.78
2023-05-03T22:36:01.763Z,2.78
2023-05-03T22:41:04.642Z,2.80
2023-05-03T22:46:08.950Z,2.50
2023-05-03T22:51:12.324Z,2.83
2023-05-03T22:56:15.680Z,2.60
2023-05-03T23:01:20.051Z,2.67
2023-05-03T23:06:22.962Z,2.90
2023-05-03T23:11:25.905Z,2.65
2023-05-03T23:16:30.227Z,2.67
2023-05-03T23:21:33.878Z,2.67
2023-05-03T23:26:36.801Z,2.70
2023-05-03T23:31:41.511Z,2.63
2023-05-03T23:36:45.054Z,2.67
2023-05-03T23:41:47.960Z,2.70
2023-05-03T23:46:52.195Z,2.75
2023-05-03T23:51:55.101Z,2.97
2023-05-03T23:56:58.008Z,3.22
